createdAt,value
2022-09-03T00:02:46.062Z,12.03
2022-09-03T00:05:37.407Z,12.00
2022-09-03T00:08:08.844Z,11.99
2022-09-03T00:10:52.196Z,11.99
2022-09-03T00:13:32.554Z,11.99
2022-09-03T00:16:01.587Z,11.98
2022-09-03T00:18:33.555Z,12.00
2022-09-03T00:21:14.166Z,12.00
2022-09-03T00:23:44.572Z,12.03
2022-09-03T00:26:11.339Z,12.05
2022-09-03T00:28:59.858Z,12.08
2022-09-03T00:31:42.936Z,12.07
2022-09-03T00:34:27.094Z,12.07
2022-09-03T00:36:54.095Z,12.09
2022-09-03T00:39:23.189Z,12.07
2022-09-03T00:42:27.757Z,12.08
2022-09-03T00:44:55.170Z,12.12
2022-09-03T00:47:53.074Z,12.17
2022-09-03T00:50:31.502Z,12.21
2022-09-03T00:53:13.657Z,12.23
2022-09-03T00:55:58.782Z,12.25
2022-09-03T00:58:47.310Z,12.29
2022-09-03T01:01:21.019Z,12.29
2022-09-03T01:04:08.273Z,12.34
2022-09-03T01:07:18.833Z,12.36
2022-09-03T01:09:54.556Z,12.37
2022-09-03T01:12:39.898Z,12.36
2022-09-03T01:15:20.716Z,12.33
2022-09-03T01:17:59.659Z,12.35
2022-09-03T01:21:04.660Z,12.36
2022-09-03T01:23:35.930Z,12.32
2022-09-03T01:26:09.030Z,12.33
2022-09-03T01:28:51.759Z,12.31
2022-09-03T01:31:40.354Z,12.35
2022-09-03T01:34:25.916Z,12.35
2022-09-03T01:37:12.509Z,12.38
2022-09-03T01:40:00.850Z,12.39
2022-09-03T01:42:50.006Z,12.41
2022-09-03T01:45:51.148Z,12.41
2022-09-03T01:48:27.732Z,12.41
2022-09-03T01:51:03.963Z,12.41
2022-09-03T01:54:21.347Z,12.43
2022-09-03T01:57:07.107Z,12.44
2022-09-03T02:00:01.780Z,12.43
2022-09-03T02:02:39.243Z,12.43
2022-09-03T02:05:17.132Z,12.43
2022-09-03T02:07:49.325Z,12.41
2022-09-03T02:10:23.099Z,12.41
2022-09-03T02:12:55.052Z,12.42
2022-09-03T02:15:26.078Z,12.43
2022-09-03T02:17:57.914Z,12.42
2022-09-03T02:20:28.594Z,12.44
2022-09-03T02:22:57.654Z,12.44
2022-09-03T02:25:30.688Z,12.39
2022-09-03T02:27:58.138Z,12.32
2022-09-03T02:30:25.142Z,12.37
2022-09-03T02:32:51.906Z,12.42
2022-09-03T02:35:18.731Z,12.41
2022-09-03T02:37:45.555Z,12.42
2022-09-03T02:40:12.367Z,12.43
2022-09-03T02:42:39.225Z,12.43
2022-09-03T02:45:26.239Z,12.44
2022-09-03T02:47:57.134Z,12.42
2022-09-03T02:50:24.449Z,12.42
2022-09-03T02:52:51.550Z,12.39
2022-09-03T02:55:19.999Z,12.37
2022-09-03T02:57:47.005Z,12.33
2022-09-03T03:00:14.780Z,12.40
2022-09-03T03:02:43.218Z,12.42
2022-09-03T03:05:18.621Z,12.44
2022-09-03T03:07:45.433Z,12.45
2022-09-03T03:10:12.651Z,12.47
2022-09-03T03:12:40.142Z,12.47
2022-09-03T03:15:07.166Z,12.46
2022-09-03T03:17:33.942Z,12.12
2022-09-03T03:20:00.695Z,11.92
2022-09-03T03:22:27.458Z,11.95
2022-09-03T03:24:55.463Z,11.84
2022-09-03T03:27:22.592Z,11.98
2022-09-03T03:29:50.481Z,12.02
2022-09-03T03:32:17.197Z,12.06
2022-09-03T03:34:43.931Z,12.08
2022-09-03T03:37:10.665Z,12.12
2022-09-03T03:39:37.531Z,12.15
2022-09-03T03:42:04.523Z,12.19
2022-09-03T03:44:31.423Z,12.23
2022-09-03T03:46:58.268Z,12.29
2022-09-03T03:49:25.025Z,12.33
2022-09-03T03:51:51.774Z,12.39
2022-09-03T03:54:19.577Z,12.45
2022-09-03T03:56:46.778Z,12.52
2022-09-03T03:59:20.865Z,12.57
2022-09-03T04:01:50.401Z,12.64
2022-09-03T04:04:17.588Z,12.69
2022-09-03T04:06:44.394Z,12.72
2022-09-03T04:09:11.140Z,12.76
2022-09-03T04:11:37.927Z,12.80
2022-09-03T04:14:04.746Z,12.82
2022-09-03T04:16:32.950Z,12.86
2022-09-03T04:18:59.973Z,12.87
2022-09-03T04:21:29.406Z,12.90
2022-09-03T04:23:57.495Z,12.93
2022-09-03T04:26:32.840Z,12.98
2022-09-03T04:29:05.432Z,13.03
2022-09-03T04:31:33.185Z,13.08
2022-09-03T04:34:00.038Z,13.13
2022-09-03T04:36:29.323Z,13.19
2022-09-03T04:38:59.320Z,13.24
2022-09-03T04:41:28.340Z,13.27
2022-09-03T04:43:57.501Z,13.31
2022-09-03T04:46:26.935Z,13.36
2022-09-03T04:48:55.127Z,13.44
2022-09-03T04:51:28.170Z,13.51
2022-09-03T04:53:57.453Z,13.53
2022-09-03T04:56:27.330Z,13.54
2022-09-03T04:58:57.335Z,13.54
2022-09-03T05:01:27.119Z,13.58
2022-09-03T05:03:55.595Z,13.58
2022-09-03T05:06:22.434Z,13.50
2022-09-03T05:08:50.516Z,13.37
2022-09-03T05:11:18.239Z,13.36
2022-09-03T05:13:49.199Z,13.39
2022-09-03T05:16:17.591Z,13.47
2022-09-03T05:18:45.186Z,13.55
2022-09-03T05:21:14.106Z,13.60
2022-09-03T05:23:46.573Z,13.67
2022-09-03T05:26:16.499Z,13.73
2022-09-03T05:28:44.097Z,13.79
2022-09-03T05:31:14.259Z,13.89
2022-09-03T05:33:43.884Z,14.08
2022-09-03T05:36:13.569Z,14.35
2022-09-03T05:38:40.856Z,14.57
2022-09-03T05:41:10.254Z,14.71
2022-09-03T05:43:37.590Z,14.82
2022-09-03T05:46:13.226Z,14.91
2022-09-03T05:48:41.183Z,15.00
2022-09-03T05:51:10.207Z,15.24
2022-09-03T05:53:39.946Z,15.53
2022-09-03T05:56:12.520Z,15.94
2022-09-03T05:58:45.331Z,16.43
2022-09-03T06:01:21.408Z,16.99
2022-09-03T06:04:00.252Z,17.65
2022-09-03T06:06:29.344Z,18.31
2022-09-03T06:08:58.423Z,18.88
2022-09-03T06:11:28.269Z,19.39
2022-09-03T06:13:56.762Z,19.85
2022-09-03T06:16:30.644Z,20.17
2022-09-03T06:19:02.825Z,20.53
2022-09-03T06:21:30.102Z,20.73
2022-09-03T06:23:59.793Z,20.80
2022-09-03T06:26:30.799Z,20.78
2022-09-03T06:28:58.025Z,20.59
2022-09-03T06:31:26.267Z,20.62
2022-09-03T06:33:54.753Z,20.66
2022-09-03T06:36:23.901Z,20.72
2022-09-03T06:38:56.270Z,20.77
2022-09-03T06:41:25.346Z,20.85
2022-09-03T06:44:01.683Z,20.94
2022-09-03T06:46:29.702Z,21.00
2022-09-03T06:48:56.593Z,21.10
2022-09-03T06:51:26.267Z,21.27
2022-09-03T06:53:56.285Z,21.58
2022-09-03T06:56:27.316Z,21.84
2022-09-03T06:58:57.620Z,22.06
2022-09-03T07:01:27.223Z,21.84
2022-09-03T07:03:59.184Z,21.62
2022-09-03T07:06:28.094Z,21.56
2022-09-03T07:08:55.609Z,21.56
2022-09-03T07:11:24.170Z,21.80
2022-09-03T07:13:51.887Z,22.18
2022-09-03T07:16:31.088Z,22.62
2022-09-03T07:18:57.965Z,23.08
2022-09-03T07:21:30.406Z,23.55
2022-09-03T07:23:57.623Z,23.78
2022-09-03T07:26:25.591Z,23.72
2022-09-03T07:28:54.206Z,23.53
2022-09-03T07:31:26.440Z,23.33
2022-09-03T07:33:57.538Z,23.20
2022-09-03T07:36:26.276Z,23.25
2022-09-03T07:38:56.838Z,23.29
2022-09-03T07:41:28.994Z,22.89
2022-09-03T07:43:57.317Z,23.15
2022-09-03T07:46:27.294Z,23.30
2022-09-03T07:48:59.120Z,22.88
2022-09-03T07:51:28.959Z,22.96
2022-09-03T07:53:58.147Z,22.89
2022-09-03T07:56:27.002Z,22.93
2022-09-03T07:58:56.729Z,23.08
2022-09-03T08:01:24.934Z,22.88
2022-09-03T08:03:53.448Z,23.00
2022-09-03T08:06:23.381Z,23.15
2022-09-03T08:09:04.557Z,23.44
2022-09-03T08:11:34.746Z,23.80
2022-09-03T08:14:06.743Z,24.08
2022-09-03T08:16:47.359Z,24.13
2022-09-03T08:19:15.238Z,24.33
2022-09-03T08:21:42.293Z,24.89
2022-09-03T08:24:11.148Z,25.57
2022-09-03T08:26:41.336Z,26.11
2022-09-03T08:29:09.210Z,26.88
2022-09-03T08:31:36.873Z,27.53
2022-09-03T08:34:07.254Z,28.33
2022-09-03T08:36:36.841Z,29.21
2022-09-03T08:39:09.889Z,29.76
2022-09-03T08:42:02.261Z,30.33
2022-09-03T08:44:42.097Z,30.77
2022-09-03T08:47:13.308Z,31.40
2022-09-03T08:50:04.306Z,32.30
2022-09-03T08:52:42.542Z,33.20
2022-09-03T08:55:34.312Z,33.30
2022-09-03T08:58:04.050Z,33.60
2022-09-03T09:01:05.487Z,34.28
2022-09-03T09:03:48.741Z,34.88
2022-09-03T09:06:16.136Z,34.90
2022-09-03T09:09:04.835Z,35.47
2022-09-03T09:11:49.784Z,35.69
2022-09-03T09:15:09.037Z,36.22
2022-09-03T09:17:44.668Z,36.22
2022-09-03T09:20:20.708Z,35.69
2022-09-03T09:23:03.211Z,35.29
2022-09-03T09:25:31.850Z,34.75
2022-09-03T09:28:13.406Z,34.77
2022-09-03T09:30:41.052Z,34.78
2022-09-03T09:33:08.102Z,35.09
2022-09-03T09:35:35.140Z,35.42
2022-09-03T09:38:01.919Z,35.79
2022-09-03T09:40:34.472Z,35.99
2022-09-03T09:43:11.092Z,36.15
2022-09-03T09:45:40.924Z,35.02
2022-09-03T09:48:18.778Z,34.40
2022-09-03T09:50:45.813Z,34.29
2022-09-03T09:53:17.888Z,34.11
2022-09-03T09:55:51.886Z,33.93
2022-09-03T09:58:28.343Z,32.81
2022-09-03T10:01:23.238Z,31.92
2022-09-03T10:03:55.412Z,31.94
2022-09-03T10:06:50.502Z,31.77
2022-09-03T10:09:29.917Z,31.64
2022-09-03T10:12:06.388Z,31.50
2022-09-03T10:14:45.495Z,31.80
2022-09-03T10:17:36.748Z,32.16
2022-09-03T10:20:32.205Z,32.57
2022-09-03T10:23:05.065Z,32.52
2022-09-03T10:25:53.516Z,32.59
2022-09-03T10:28:25.729Z,32.07
2022-09-03T10:31:13.476Z,32.06
2022-09-03T10:34:18.952Z,32.21
2022-09-03T10:36:55.941Z,32.37
2022-09-03T10:39:32.302Z,33.00
2022-09-03T10:42:35.101Z,34.21
2022-09-03T10:45:10.796Z,34.95
2022-09-03T10:47:51.861Z,35.34
2022-09-03T10:50:40.031Z,35.52
2022-09-03T10:53:34.744Z,35.58
2022-09-03T10:56:10.721Z,35.31
2022-09-03T10:58:50.872Z,34.86
2022-09-03T11:01:23.598Z,34.59
2022-09-03T11:04:38.405Z,34.60
2022-09-03T11:07:09.789Z,34.45
2022-09-03T11:09:44.093Z,34.31
2022-09-03T11:12:25.397Z,34.50
2022-09-03T11:15:27.961Z,34.56
2022-09-03T11:18:21.387Z,34.57
2022-09-03T11:20:51.724Z,34.56
2022-09-03T11:23:20.463Z,34.58
2022-09-03T11:25:53.574Z,34.44
2022-09-03T11:28:55.660Z,34.15
2022-09-03T11:31:43.492Z,33.91
2022-09-03T11:34:32.233Z,33.60
2022-09-03T11:37:18.800Z,33.16
2022-09-03T11:39:53.981Z,32.49
2022-09-03T11:42:29.460Z,31.73
2022-09-03T11:45:12.665Z,30.98
2022-09-03T11:47:44.535Z,30.24
2022-09-03T11:50:25.088Z,29.75
2022-09-03T11:52:56.821Z,28.86
2022-09-03T11:55:38.328Z,28.47
2022-09-03T11:58:24.393Z,27.87
2022-09-03T12:00:54.075Z,27.57
2022-09-03T12:03:28.618Z,27.10
2022-09-03T12:06:09.020Z,27.55
2022-09-03T12:09:11.303Z,28.38
2022-09-03T12:12:28.936Z,28.78
2022-09-03T12:15:19.745Z,28.98
2022-09-03T12:18:12.537Z,28.85
2022-09-03T12:20:40.912Z,28.79
2022-09-03T12:23:11.037Z,28.68
2022-09-03T12:25:47.608Z,28.62
2022-09-03T12:28:21.923Z,28.02
2022-09-03T12:30:49.352Z,28.03
2022-09-03T12:33:18.425Z,27.91
2022-09-03T12:35:59.859Z,27.85
2022-09-03T12:38:29.571Z,27.84
2022-09-03T12:43:51.989Z,28.11
2022-09-03T12:46:21.090Z,28.00
2022-09-03T12:51:55.338Z,27.53
2022-09-03T12:54:24.009Z,27.04
2022-09-03T12:56:58.500Z,26.68
2022-09-03T12:59:31.298Z,26.66
2022-09-03T13:02:03.385Z,26.47
2022-09-03T13:04:34.631Z,26.63
2022-09-03T13:07:01.370Z,26.72
2022-09-03T13:09:30.854Z,26.75
2022-09-03T13:11:59.210Z,26.94
2022-09-03T13:14:29.235Z,27.43
2022-09-03T13:17:10.677Z,27.36
2022-09-03T13:20:08.362Z,27.20
2022-09-03T13:22:47.482Z,26.68
2022-09-03T13:25:17.272Z,25.97
2022-09-03T13:28:40.107Z,25.53
2022-09-03T13:31:39.127Z,25.25
2022-09-03T13:34:15.825Z,25.18
2022-09-03T13:36:51.945Z,25.15
2022-09-03T13:39:26.811Z,25.09
2022-09-03T13:42:06.703Z,25.11
2022-09-03T13:44:43.584Z,25.01
2022-09-03T13:47:17.536Z,24.90
2022-09-03T13:50:12.018Z,24.72
2022-09-03T13:52:43.048Z,24.51
2022-09-03T13:55:23.928Z,24.52
2022-09-03T13:58:01.836Z,24.61
2022-09-03T14:00:34.784Z,24.66
2022-09-03T14:03:35.671Z,24.71
2022-09-03T14:06:11.661Z,24.70
2022-09-03T14:09:04.875Z,24.65
2022-09-03T14:11:53.223Z,24.57
2022-09-03T14:14:37.753Z,24.49
2022-09-03T14:17:32.750Z,24.44
2022-09-03T14:20:11.741Z,24.13
2022-09-03T14:23:02.919Z,23.97
2022-09-03T14:25:30.143Z,23.85
2022-09-03T14:28:14.448Z,23.69
2022-09-03T14:30:55.880Z,23.46
2022-09-03T14:33:35.061Z,23.28
2022-09-03T14:36:16.810Z,23.07
2022-09-03T14:39:12.667Z,22.76
2022-09-03T14:42:07.567Z,22.53
2022-09-03T14:44:45.873Z,22.35
2022-09-03T14:47:54.974Z,22.16
2022-09-03T14:50:36.691Z,21.99
2022-09-03T14:53:38.676Z,21.86
2022-09-03T14:56:11.606Z,21.74
2022-09-03T14:58:58.516Z,21.67
2022-09-03T15:01:38.921Z,21.60
2022-09-03T15:04:31.858Z,21.56
2022-09-03T15:07:27.831Z,21.52
2022-09-03T15:10:32.933Z,21.54
2022-09-03T15:13:09.303Z,21.59
2022-09-03T15:15:42.164Z,21.68
2022-09-03T15:18:45.875Z,21.77
2022-09-03T15:21:41.074Z,21.82
2022-09-03T15:24:21.510Z,21.86
2022-09-03T15:26:51.294Z,21.87
2022-09-03T15:29:42.217Z,21.86
2022-09-03T15:32:20.788Z,21.77
2022-09-03T15:34:56.432Z,21.67
2022-09-03T15:37:32.923Z,21.53
2022-09-03T15:40:20.445Z,21.38
2022-09-03T15:42:50.486Z,21.25
2022-09-03T15:45:32.708Z,21.11
2022-09-03T15:48:23.605Z,20.95
2022-09-03T15:50:50.414Z,20.78
2022-09-03T15:53:27.913Z,20.59
2022-09-03T15:56:15.125Z,20.41
2022-09-03T15:58:53.722Z,20.26
2022-09-03T16:01:30.150Z,20.09
2022-09-03T16:04:40.960Z,19.90
2022-09-03T16:07:24.183Z,19.68
2022-09-03T16:10:25.321Z,19.43
2022-09-03T16:13:19.088Z,19.17
2022-09-03T16:16:11.335Z,18.86
2022-09-03T16:18:55.829Z,18.59
2022-09-03T16:21:31.573Z,18.32
2022-09-03T16:24:13.000Z,18.05
2022-09-03T16:27:23.970Z,17.77
2022-09-03T16:30:03.085Z,17.48
2022-09-03T16:32:48.103Z,17.24
2022-09-03T16:35:41.523Z,17.03
2022-09-03T16:38:17.488Z,16.81
2022-09-03T16:41:21.540Z,16.61
2022-09-03T16:44:06.914Z,16.38
2022-09-03T16:46:50.654Z,16.23
2022-09-03T16:49:38.199Z,16.04
2022-09-03T16:52:17.616Z,15.88
2022-09-03T16:55:15.219Z,15.71
2022-09-03T16:57:54.599Z,15.56
2022-09-03T17:00:22.136Z,15.43
2022-09-03T17:03:36.801Z,15.30
2022-09-03T17:06:16.736Z,15.11
2022-09-03T17:09:11.470Z,14.98
2022-09-03T17:11:43.066Z,14.86
2022-09-03T17:14:12.623Z,14.75
2022-09-03T17:17:25.758Z,14.64
2022-09-03T17:20:13.738Z,14.54
2022-09-03T17:23:04.738Z,14.47
2022-09-03T17:25:40.958Z,14.41
2022-09-03T17:28:21.432Z,14.35
2022-09-03T17:31:06.463Z,14.30
2022-09-03T17:34:10.631Z,14.22
2022-09-03T17:36:38.755Z,14.14
2022-09-03T17:39:24.080Z,14.10
2022-09-03T17:41:53.350Z,14.06
2022-09-03T17:44:51.711Z,14.01
2022-09-03T17:47:42.590Z,13.96
2022-09-03T17:50:20.111Z,13.92
2022-09-03T17:53:09.476Z,13.86
2022-09-03T17:55:51.735Z,13.73
2022-09-03T17:58:21.525Z,13.61
2022-09-03T18:01:10.743Z,13.46
2022-09-03T18:04:02.162Z,13.34
2022-09-03T18:06:55.670Z,13.17
2022-09-03T18:09:37.613Z,13.05
2022-09-03T18:12:20.637Z,12.99
2022-09-03T18:15:01.100Z,12.93
2022-09-03T18:17:41.612Z,12.86
2022-09-03T18:20:30.701Z,12.78
2022-09-03T18:23:38.735Z,12.69
2022-09-03T18:26:29.427Z,12.59
2022-09-03T18:29:25.906Z,12.50
2022-09-03T18:32:11.524Z,12.40
2022-09-03T18:34:57.781Z,12.32
2022-09-03T18:37:46.123Z,12.28
2022-09-03T18:40:55.377Z,12.25
2022-09-03T18:44:25.317Z,12.13
2022-09-03T18:48:01.633Z,12.02
2022-09-03T18:50:36.007Z,11.93
2022-09-03T18:53:41.002Z,11.91
2022-09-03T18:56:33.200Z,11.87
2022-09-03T18:59:33.982Z,11.86
2022-09-03T19:02:32.099Z,11.85
2022-09-03T19:05:45.138Z,11.87
2022-09-03T19:08:43.833Z,11.86
2022-09-03T19:11:52.299Z,11.88
2022-09-03T19:15:04.056Z,11.90
2022-09-03T19:18:17.608Z,11.92
2022-09-03T19:21:30.475Z,11.95
2022-09-03T19:24:21.094Z,11.96
2022-09-03T19:30:51.701Z,12.06
2022-09-03T19:33:52.153Z,12.12
2022-09-03T19:37:09.421Z,12.15
2022-09-03T19:40:11.011Z,12.16
2022-09-03T19:43:20.724Z,12.15
2022-09-03T19:46:48.527Z,12.14
2022-09-03T19:49:55.807Z,12.10
2022-09-03T19:52:50.202Z,12.10
2022-09-03T19:55:43.126Z,12.07
2022-09-03T19:58:42.481Z,11.97
2022-09-03T20:01:29.809Z,11.94
2022-09-03T20:04:19.123Z,11.87
2022-09-03T20:07:06.253Z,11.80
2022-09-03T20:09:57.080Z,11.76
2022-09-03T20:12:26.761Z,11.72
2022-09-03T20:14:53.873Z,11.70
2022-09-03T20:17:36.366Z,11.69
2022-09-03T20:20:26.382Z,11.70
2022-09-03T20:23:15.387Z,11.69
2022-09-03T20:25:55.009Z,11.70
2022-09-03T20:28:27.820Z,11.67
2022-09-03T20:31:03.084Z,11.62
2022-09-03T20:33:32.482Z,11.56
2022-09-03T20:36:04.948Z,11.52
2022-09-03T20:38:48.195Z,11.45
2022-09-03T20:41:20.638Z,11.39
2022-09-03T20:43:50.087Z,11.33
2022-09-03T20:46:27.615Z,11.30
2022-09-03T20:48:57.986Z,11.28
2022-09-03T20:51:33.254Z,11.26
2022-09-03T20:54:20.230Z,11.24
2022-09-03T20:57:08.915Z,11.24
2022-09-03T21:00:01.540Z,11.24
2022-09-03T21:02:37.568Z,11.26
2022-09-03T21:05:13.716Z,11.28
2022-09-03T21:07:52.515Z,11.31
2022-09-03T21:10:19.192Z,11.34
2022-09-03T21:12:50.152Z,11.38
2022-09-03T21:15:24.772Z,11.41
2022-09-03T21:18:33.078Z,11.44
2022-09-03T21:21:06.128Z,11.46
2022-09-03T21:23:39.375Z,11.48
2022-09-03T21:26:15.184Z,11.49
2022-09-03T21:28:46.794Z,11.50
2022-09-03T21:31:28.954Z,11.50
2022-09-03T21:34:09.749Z,11.49
2022-09-03T21:36:39.466Z,11.49
2022-09-03T21:39:31.575Z,11.51
2022-09-03T21:42:07.283Z,11.51
2022-09-03T21:44:46.922Z,11.55
2022-09-03T21:47:16.551Z,11.57
2022-09-03T21:49:55.292Z,11.57
2022-09-03T21:53:00.802Z,11.58
2022-09-03T21:55:47.400Z,11.60
2022-09-03T21:58:27.935Z,11.59
2022-09-03T22:01:04.379Z,11.60
2022-09-03T22:03:31.422Z,11.59
2022-09-03T22:06:06.640Z,11.58
2022-09-03T22:08:45.408Z,11.59
2022-09-03T22:11:44.014Z,11.57
2022-09-03T22:14:15.572Z,11.54
2022-09-03T22:16:42.309Z,11.51
2022-09-03T22:19:09.167Z,11.50
2022-09-03T22:21:45.588Z,11.48
2022-09-03T22:24:23.562Z,11.46
2022-09-03T22:27:03.222Z,11.42
2022-09-03T22:29:43.831Z,11.41
2022-09-03T22:32:36.283Z,11.37
2022-09-03T22:35:26.164Z,11.29
2022-09-03T22:38:01.783Z,11.23
2022-09-03T22:41:11.705Z,11.18
2022-09-03T22:43:45.335Z,11.11
2022-09-03T22:46:14.416Z,11.08
2022-09-03T22:48:50.907Z,11.06
2022-09-03T22:51:21.601Z,11.02
2022-09-03T22:54:14.344Z,10.99
2022-09-03T22:56:42.011Z,10.96
2022-09-03T22:59:13.085Z,10.92
2022-09-03T23:02:20.849Z,10.84
2022-09-03T23:05:10.653Z,10.74
2022-09-03T23:07:59.401Z,10.67
2022-09-03T23:10:33.443Z,10.59
2022-09-03T23:13:41.961Z,10.53
2022-09-03T23:16:28.228Z,10.47
2022-09-03T23:18:57.672Z,10.45
2022-09-03T23:21:41.066Z,10.45
2022-09-03T23:24:18.136Z,10.42
2022-09-03T23:26:49.492Z,10.38
2022-09-03T23:29:23.639Z,10.36
2022-09-03T23:31:51.312Z,10.35
2022-09-03T23:34:18.151Z,10.34
2022-09-03T23:37:29.251Z,10.31
2022-09-03T23:40:27.002Z,10.28
2022-09-03T23:43:21.000Z,10.23
2022-09-03T23:46:06.554Z,10.16
2022-09-03T23:48:55.184Z,10.11
2022-09-03T23:51:37.119Z,10.04
2022-09-03T23:54:19.115Z,9.95
2022-09-03T23:57:08.354Z,9.83
2022-09-03T23:59:56.374Z,9.72
